createdAt,value
2023-02-05T00:02:44.364Z,0.23
2023-02-05T00:05:45.917Z,0.21
2023-02-05T00:08:47.747Z,0.20
2023-02-05T00:11:49.278Z,0.22
2023-02-05T00:14:52.173Z,0.21
2023-02-05T00:17:55.301Z,0.18
2023-02-05T00:20:57.296Z,0.17
2023-02-05T00:23:58.930Z,0.19
2023-02-05T00:27:00.721Z,0.14
2023-02-05T00:30:02.295Z,0.15
2023-02-05T00:33:05.523Z,0.13
2023-02-05T00:36:08.049Z,0.08
2023-02-05T00:39:11.492Z,0.05
2023-02-05T00:42:13.566Z,0.05
2023-02-05T00:45:15.538Z,0.10
2023-02-05T00:48:18.454Z,0.14
2023-02-05T00:51:20.465Z,0.19
2023-02-05T00:54:22.215Z,0.15
2023-02-05T00:57:25.085Z,0.04
2023-02-05T01:00:28.083Z,0.13
2023-02-05T01:03:31.137Z,0.18
2023-02-05T01:06:33.000Z,0.14
2023-02-05T01:09:34.874Z,0.05
2023-02-05T01:12:37.192Z,0.08
2023-02-05T01:15:38.924Z,0.10
2023-02-05T01:18:41.944Z,0.01
2023-02-05T01:21:43.814Z,0.06
2023-02-05T01:24:45.611Z,0.03
2023-02-05T01:27:47.360Z,0.01
2023-02-05T01:30:49.821Z,-0.02
2023-02-05T01:33:52.810Z,0.00
2023-02-05T01:36:54.621Z,0.00
2023-02-05T01:40:02.101Z,0.09
2023-02-05T01:43:18.158Z,0.09
2023-02-05T01:46:22.019Z,0.07
2023-02-05T01:49:26.623Z,0.03
2023-02-05T01:52:28.495Z,0.01
2023-02-05T01:55:30.928Z,0.07
2023-02-05T01:58:35.905Z,0.06
2023-02-05T02:01:38.632Z,0.06
2023-02-05T02:04:43.162Z,0.05
2023-02-05T02:07:44.782Z,0.08
2023-02-05T02:10:48.349Z,0.05
2023-02-05T02:13:51.673Z,0.05
2023-02-05T02:16:53.654Z,0.07
2023-02-05T02:20:00.506Z,0.04
2023-02-05T02:23:10.297Z,-0.02
2023-02-05T02:26:25.565Z,-0.03
2023-02-05T02:29:34.846Z,0.05
2023-02-05T02:32:38.780Z,0.02
2023-02-05T02:35:44.960Z,0.02
2023-02-05T02:38:50.882Z,0.04
2023-02-05T02:41:54.018Z,0.07
2023-02-05T02:45:02.719Z,0.01
2023-02-05T02:48:06.609Z,-0.04
2023-02-05T02:51:10.188Z,-0.07
2023-02-05T02:54:14.300Z,-0.04
2023-02-05T02:57:18.103Z,-0.03
2023-02-05T03:00:22.877Z,-0.09
2023-02-05T03:03:26.644Z,-0.07
2023-02-05T03:06:30.337Z,-0.04
2023-02-05T03:09:33.338Z,-0.02
2023-02-05T03:12:35.218Z,-0.07
2023-02-05T03:15:38.799Z,-0.03
2023-02-05T03:18:40.993Z,0.01
2023-02-05T03:21:44.445Z,0.04
2023-02-05T03:24:46.224Z,0.12
2023-02-05T03:27:48.745Z,0.17
2023-02-05T03:30:59.918Z,0.16
2023-02-05T03:34:08.248Z,0.18
2023-02-05T03:37:13.281Z,0.20
2023-02-05T03:40:17.992Z,0.24
2023-02-05T03:43:30.436Z,0.15
2023-02-05T03:46:40.263Z,0.09
2023-02-05T03:49:52.604Z,0.12
2023-02-05T03:52:57.406Z,0.22
2023-02-05T03:56:03.622Z,0.19
2023-02-05T03:59:06.240Z,0.21
2023-02-05T04:02:09.482Z,0.24
2023-02-05T04:05:15.656Z,0.27
2023-02-05T04:08:18.448Z,0.38
2023-02-05T04:11:24.222Z,0.48
2023-02-05T04:14:25.984Z,0.54
2023-02-05T04:17:29.193Z,0.56
2023-02-05T04:20:31.194Z,0.63
2023-02-05T04:23:33.602Z,0.62
2023-02-05T04:26:36.176Z,0.66
2023-02-05T04:29:40.708Z,0.66
2023-02-05T04:32:44.003Z,0.70
2023-02-05T04:35:45.949Z,0.74
2023-02-05T04:38:48.113Z,0.75
2023-02-05T04:41:50.019Z,0.78
2023-02-05T04:44:52.949Z,0.81
2023-02-05T04:47:57.057Z,0.81
2023-02-05T04:50:58.627Z,0.84
2023-02-05T04:54:00.243Z,0.83
2023-02-05T04:57:01.900Z,0.85
2023-02-05T05:00:04.070Z,0.86
2023-02-05T05:03:07.072Z,0.88
2023-02-05T05:06:09.174Z,0.89
2023-02-05T05:09:10.885Z,0.93
2023-02-05T05:12:12.898Z,0.96
2023-02-05T05:15:14.788Z,0.97
2023-02-05T05:18:17.872Z,0.95
2023-02-05T05:21:20.349Z,0.98
2023-02-05T05:24:22.218Z,0.96
2023-02-05T05:27:24.357Z,0.96
2023-02-05T05:30:25.983Z,0.92
2023-02-05T05:33:28.989Z,0.86
2023-02-05T05:36:30.572Z,0.84
2023-02-05T05:39:50.786Z,0.84
2023-02-05T05:43:11.155Z,0.82
2023-02-05T05:46:13.217Z,0.79
2023-02-05T05:49:16.295Z,0.75
2023-02-05T05:52:17.902Z,0.76
2023-02-05T05:55:19.676Z,0.75
2023-02-05T05:58:21.246Z,0.65
2023-02-05T06:01:23.123Z,0.62
2023-02-05T06:04:26.468Z,0.57
2023-02-05T06:07:28.843Z,0.57
2023-02-05T06:10:30.759Z,0.58
2023-02-05T06:13:32.784Z,0.59
2023-02-05T06:16:37.108Z,0.56
2023-02-05T06:19:40.528Z,0.57
2023-02-05T06:22:42.749Z,0.54
2023-02-05T06:25:44.764Z,0.58
2023-02-05T06:28:46.299Z,0.58
2023-02-05T06:31:48.049Z,0.63
2023-02-05T06:34:51.071Z,0.60
2023-02-05T06:37:53.043Z,0.56
2023-02-05T06:40:54.855Z,0.59
2023-02-05T06:43:56.519Z,0.62
2023-02-05T06:46:58.552Z,0.61
2023-02-05T06:50:01.682Z,0.65
2023-02-05T06:53:03.801Z,0.64
2023-02-05T06:56:05.930Z,0.68
2023-02-05T06:59:07.435Z,0.75
2023-02-05T07:02:10.627Z,0.77
2023-02-05T07:05:13.806Z,0.79
2023-02-05T07:08:15.681Z,0.76
2023-02-05T07:11:17.559Z,0.72
2023-02-05T07:14:19.403Z,0.64
2023-02-05T07:17:21.240Z,0.64
2023-02-05T07:20:24.511Z,0.64
2023-02-05T07:23:26.563Z,0.65
2023-02-05T07:26:28.164Z,0.60
2023-02-05T07:29:29.966Z,0.52
2023-02-05T07:32:31.650Z,0.48
2023-02-05T07:35:38.147Z,0.46
2023-02-05T07:38:39.930Z,0.46
2023-02-05T07:41:41.757Z,0.50
2023-02-05T07:44:48.983Z,0.51
2023-02-05T07:47:54.137Z,0.50
2023-02-05T07:50:57.367Z,0.54
2023-02-05T07:53:59.225Z,0.51
2023-02-05T07:57:01.675Z,0.51
2023-02-05T08:00:03.550Z,0.47
2023-02-05T08:03:13.953Z,0.46
2023-02-05T08:06:17.111Z,0.45
2023-02-05T08:09:18.941Z,0.44
2023-02-05T08:12:20.731Z,0.44
2023-02-05T08:15:22.307Z,0.43
2023-02-05T08:18:24.126Z,0.42
2023-02-05T08:21:27.253Z,0.42
2023-02-05T08:24:29.236Z,0.44
2023-02-05T08:27:32.356Z,0.49
2023-02-05T08:30:34.105Z,0.53
2023-02-05T08:33:36.061Z,0.44
2023-02-05T08:36:39.136Z,0.48
2023-02-05T08:39:40.843Z,0.50
2023-02-05T08:42:42.520Z,0.49
2023-02-05T08:45:45.835Z,0.46
2023-02-05T08:48:49.481Z,0.51
2023-02-05T08:51:52.658Z,0.55
2023-02-05T08:54:54.321Z,0.59
2023-02-05T08:57:56.144Z,0.64
2023-02-05T09:01:01.543Z,0.66
2023-02-05T09:04:03.351Z,0.74
2023-02-05T09:07:06.376Z,0.72
2023-02-05T09:10:08.618Z,0.71
2023-02-05T09:13:10.766Z,0.71
2023-02-05T09:16:12.397Z,0.74
2023-02-05T09:19:14.312Z,0.80
2023-02-05T09:22:18.973Z,0.83
2023-02-05T09:25:20.846Z,0.86
2023-02-05T09:28:22.430Z,0.84
2023-02-05T09:31:24.738Z,0.86
2023-02-05T09:34:26.616Z,0.94
2023-02-05T09:37:30.327Z,1.02
2023-02-05T09:40:34.375Z,1.01
2023-02-05T09:43:43.917Z,1.07
2023-02-05T09:46:50.424Z,1.09
2023-02-05T09:49:56.251Z,1.13
2023-02-05T09:53:01.351Z,1.11
2023-02-05T09:56:04.646Z,1.13
2023-02-05T09:59:06.673Z,1.19
2023-02-05T10:02:18.309Z,1.24
2023-02-05T10:05:22.303Z,1.25
2023-02-05T10:08:31.422Z,1.21
2023-02-05T10:11:37.801Z,1.24
2023-02-05T10:14:44.854Z,1.31
2023-02-05T10:17:52.622Z,1.30
2023-02-05T10:20:58.819Z,1.28
2023-02-05T10:24:12.931Z,1.27
2023-02-05T10:27:19.519Z,1.32
2023-02-05T10:30:25.956Z,1.39
2023-02-05T10:33:35.629Z,1.44
2023-02-05T10:36:37.441Z,1.41
2023-02-05T10:39:40.845Z,1.42
2023-02-05T10:42:44.940Z,1.43
2023-02-05T10:45:47.413Z,1.45
2023-02-05T10:48:51.022Z,1.53
2023-02-05T10:51:53.381Z,1.56
2023-02-05T10:54:56.700Z,1.57
2023-02-05T10:58:00.488Z,1.61
2023-02-05T11:01:04.764Z,1.64
2023-02-05T11:04:11.920Z,1.65
2023-02-05T11:07:16.051Z,1.67
2023-02-05T11:10:20.175Z,1.68
2023-02-05T11:13:22.217Z,1.69
2023-02-05T11:16:25.519Z,1.77
2023-02-05T11:19:28.299Z,1.84
2023-02-05T11:22:36.992Z,1.90
2023-02-05T11:25:51.634Z,1.96
2023-02-05T11:28:53.298Z,1.98
2023-02-05T11:31:57.136Z,2.01
2023-02-05T11:35:08.527Z,2.13
2023-02-05T11:38:15.742Z,2.15
2023-02-05T11:41:28.297Z,2.22
2023-02-05T11:44:32.222Z,2.21
2023-02-05T11:47:35.331Z,2.24
2023-02-05T11:50:43.874Z,2.25
2023-02-05T11:53:48.677Z,2.32
2023-02-05T11:57:01.885Z,2.35
2023-02-05T12:00:19.473Z,2.36
2023-02-05T12:03:21.284Z,2.40
2023-02-05T12:06:28.894Z,2.44
2023-02-05T12:09:31.356Z,2.50
2023-02-05T12:12:38.489Z,2.56
2023-02-05T12:15:43.825Z,2.49
2023-02-05T12:18:51.437Z,2.55
2023-02-05T12:21:59.900Z,2.55
2023-02-05T12:25:10.163Z,2.52
2023-02-05T12:28:26.672Z,2.52
2023-02-05T12:31:33.940Z,2.46
2023-02-05T12:34:40.576Z,2.46
2023-02-05T12:37:46.499Z,2.37
2023-02-05T12:41:01.363Z,2.31
2023-02-05T12:44:07.952Z,2.33
2023-02-05T12:47:16.606Z,2.42
2023-02-05T12:50:32.102Z,2.40
2023-02-05T12:53:39.476Z,2.41
2023-02-05T12:56:51.839Z,2.46
2023-02-05T12:59:55.985Z,2.49
2023-02-05T13:03:03.381Z,2.46
2023-02-05T13:06:09.851Z,2.47
2023-02-05T13:09:16.674Z,2.41
2023-02-05T13:12:23.263Z,2.42
2023-02-05T13:15:28.157Z,2.45
2023-02-05T13:18:33.184Z,2.47
2023-02-05T13:21:53.755Z,2.46
2023-02-05T13:25:17.906Z,2.54
2023-02-05T13:28:41.615Z,2.53
2023-02-05T13:31:48.456Z,2.51
2023-02-05T13:34:54.694Z,2.48
2023-02-05T13:38:11.134Z,2.45
2023-02-05T13:41:25.106Z,2.42
2023-02-05T13:44:35.980Z,2.40
2023-02-05T13:47:46.087Z,2.42
2023-02-05T13:51:02.726Z,2.33
2023-02-05T13:54:16.527Z,2.32
2023-02-05T13:57:38.484Z,2.36
2023-02-05T14:00:41.872Z,2.32
2023-02-05T14:03:53.137Z,2.34
2023-02-05T14:07:00.406Z,2.32
2023-02-05T14:10:02.891Z,2.31
2023-02-05T14:13:21.735Z,2.28
2023-02-05T14:16:34.160Z,2.32
2023-02-05T14:19:58.708Z,2.35
2023-02-05T14:23:01.327Z,2.36
2023-02-05T14:26:12.283Z,2.37
2023-02-05T14:29:32.014Z,2.32
2023-02-05T14:32:52.834Z,2.31
2023-02-05T14:35:57.878Z,2.26
2023-02-05T14:39:17.303Z,2.26
2023-02-05T14:42:20.603Z,2.19
2023-02-05T14:45:24.459Z,2.25
2023-02-05T14:48:31.081Z,2.26
2023-02-05T14:51:36.484Z,2.19
2023-02-05T14:54:44.378Z,2.17
2023-02-05T14:57:49.008Z,2.15
2023-02-05T15:00:50.891Z,2.14
2023-02-05T15:03:53.345Z,2.12
2023-02-05T15:06:59.321Z,2.21
2023-02-05T15:10:03.369Z,2.18
2023-02-05T15:13:09.675Z,2.20
2023-02-05T15:16:21.013Z,2.19
2023-02-05T15:19:24.240Z,2.19
2023-02-05T15:22:31.272Z,2.21
2023-02-05T15:25:36.909Z,2.10
2023-02-05T15:28:40.762Z,2.03
2023-02-05T15:31:46.448Z,1.96
2023-02-05T15:34:51.928Z,1.98
2023-02-05T15:37:56.296Z,1.99
2023-02-05T15:40:59.164Z,1.93
2023-02-05T15:44:03.470Z,1.93
2023-02-05T15:47:10.544Z,1.91
2023-02-05T15:50:13.830Z,1.92
2023-02-05T15:53:27.759Z,1.97
2023-02-05T15:56:32.862Z,1.95
2023-02-05T15:59:35.513Z,1.96
2023-02-05T16:02:40.065Z,1.93
2023-02-05T16:05:51.264Z,1.94
2023-02-05T16:08:55.853Z,1.99
2023-02-05T16:12:10.175Z,2.06
2023-02-05T16:15:14.424Z,2.02
2023-02-05T16:18:19.214Z,2.02
2023-02-05T16:21:25.120Z,2.03
2023-02-05T16:24:30.803Z,2.01
2023-02-05T16:27:35.659Z,1.99
2023-02-05T16:30:43.069Z,1.99
2023-02-05T16:33:47.412Z,2.01
2023-02-05T16:36:50.446Z,2.06
2023-02-05T16:39:58.064Z,2.02
2023-02-05T16:43:04.748Z,2.03
2023-02-05T16:46:23.601Z,2.02
2023-02-05T16:49:29.764Z,1.98
2023-02-05T16:52:33.183Z,2.00
2023-02-05T16:55:42.092Z,2.05
2023-02-05T16:58:48.096Z,2.02
2023-02-05T17:01:51.042Z,2.02
2023-02-05T17:04:54.114Z,2.04
2023-02-05T17:07:56.968Z,2.02
2023-02-05T17:11:01.838Z,2.00
2023-02-05T17:14:12.851Z,2.03
2023-02-05T17:17:16.983Z,2.04
2023-02-05T17:20:20.144Z,2.07
2023-02-05T17:23:21.862Z,2.04
2023-02-05T17:26:26.423Z,2.03
2023-02-05T17:29:28.242Z,2.00
2023-02-05T17:32:31.921Z,2.00
2023-02-05T17:35:34.168Z,1.98
2023-02-05T17:38:36.146Z,1.98
2023-02-05T17:41:58.981Z,2.01
2023-02-05T17:45:01.095Z,2.01
2023-02-05T17:48:04.740Z,1.99
2023-02-05T17:51:06.730Z,2.00
2023-02-05T17:54:12.541Z,2.02
2023-02-05T17:57:17.199Z,2.00
2023-02-05T18:00:19.996Z,2.05
2023-02-05T18:03:21.698Z,2.05
2023-02-05T18:06:23.793Z,2.03
2023-02-05T18:09:25.303Z,2.06
2023-02-05T18:12:29.123Z,2.05
2023-02-05T18:15:31.904Z,2.03
2023-02-05T18:18:38.921Z,2.04
2023-02-05T18:21:41.714Z,2.06
2023-02-05T18:24:43.436Z,2.03
2023-02-05T18:27:48.142Z,1.99
2023-02-05T18:30:56.318Z,1.98
2023-02-05T18:33:58.769Z,1.92
2023-02-05T18:37:00.382Z,1.91
2023-02-05T18:40:02.088Z,1.84
2023-02-05T18:43:06.087Z,1.79
2023-02-05T18:46:08.475Z,1.79
2023-02-05T18:49:10.337Z,1.78
2023-02-05T18:52:14.017Z,1.79
2023-02-05T18:55:16.000Z,1.81
2023-02-05T18:58:19.072Z,1.82
2023-02-05T19:01:21.126Z,1.77
2023-02-05T19:04:24.810Z,1.70
2023-02-05T19:07:26.484Z,1.69
2023-02-05T19:10:28.054Z,1.66
2023-02-05T19:13:31.320Z,1.64
2023-02-05T19:16:34.939Z,1.62
2023-02-05T19:19:36.893Z,1.61
2023-02-05T19:22:39.178Z,1.54
2023-02-05T19:25:40.960Z,1.50
2023-02-05T19:28:44.833Z,1.49
2023-02-05T19:31:47.015Z,1.51
2023-02-05T19:34:48.861Z,1.45
2023-02-05T19:37:50.754Z,1.48
2023-02-05T19:40:52.448Z,1.45
2023-02-05T19:43:56.939Z,1.44
2023-02-05T19:46:59.406Z,1.43
2023-02-05T19:50:01.178Z,1.42
2023-02-05T19:53:02.942Z,1.41
2023-02-05T19:56:07.565Z,1.42
2023-02-05T19:59:10.951Z,1.43
2023-02-05T20:02:13.519Z,1.45
2023-02-05T20:05:15.802Z,1.40
2023-02-05T20:08:18.108Z,1.38
2023-02-05T20:11:20.232Z,1.39
2023-02-05T20:14:23.649Z,1.39
2023-02-05T20:17:25.296Z,1.41
2023-02-05T20:20:33.477Z,1.41
2023-02-05T20:23:35.899Z,1.41
2023-02-05T20:26:38.189Z,1.44
2023-02-05T20:30:19.950Z,1.41
2023-02-05T20:33:21.799Z,1.38
2023-02-05T20:36:23.456Z,1.37
2023-02-05T20:39:28.784Z,1.37
2023-02-05T20:42:31.028Z,1.33
2023-02-05T20:45:34.114Z,1.28
2023-02-05T20:48:35.820Z,1.28
2023-02-05T20:51:37.959Z,1.30
2023-02-05T20:54:42.527Z,1.28
2023-02-05T20:57:48.308Z,1.28
2023-02-05T21:00:55.361Z,1.27
2023-02-05T21:04:01.447Z,1.27
2023-02-05T21:07:03.567Z,1.26
2023-02-05T21:10:06.028Z,1.26
2023-02-05T21:13:07.995Z,1.27
2023-02-05T21:16:12.157Z,1.25
2023-02-05T21:19:14.026Z,1.26
2023-02-05T21:22:15.670Z,1.27
2023-02-05T21:25:17.357Z,1.27
2023-02-05T21:28:19.734Z,1.29
2023-02-05T21:31:23.520Z,1.28
2023-02-05T21:34:26.407Z,1.25
2023-02-05T21:37:28.472Z,1.26
2023-02-05T21:40:30.579Z,1.28
2023-02-05T21:43:32.475Z,1.30
2023-02-05T21:46:35.430Z,1.28
2023-02-05T21:49:37.206Z,1.31
2023-02-05T21:52:38.846Z,1.30
2023-02-05T21:55:40.532Z,1.34
2023-02-05T21:58:43.214Z,1.35
2023-02-05T22:01:46.658Z,1.34
2023-02-05T22:04:48.355Z,1.36
2023-02-05T22:07:50.152Z,1.37
2023-02-05T22:10:55.947Z,1.36
2023-02-05T22:13:58.032Z,1.37
2023-02-05T22:17:02.558Z,1.39
2023-02-05T22:20:05.158Z,1.41
2023-02-05T22:23:06.899Z,1.43
2023-02-05T22:26:08.847Z,1.52
2023-02-05T22:29:11.989Z,1.50
2023-02-05T22:32:15.084Z,1.48
2023-02-05T22:35:17.356Z,1.52
2023-02-05T22:38:19.111Z,1.58
2023-02-05T22:41:24.114Z,1.56
2023-02-05T22:44:25.740Z,1.53
2023-02-05T22:47:30.121Z,1.50
2023-02-05T22:50:33.093Z,1.49
2023-02-05T22:53:35.281Z,1.49
2023-02-05T22:56:37.149Z,1.52
2023-02-05T22:59:42.196Z,1.54
2023-02-05T23:02:46.372Z,1.56
2023-02-05T23:05:47.961Z,1.57
2023-02-05T23:08:51.269Z,1.53
2023-02-05T23:11:54.845Z,1.51
2023-02-05T23:14:56.646Z,1.49
2023-02-05T23:17:59.849Z,1.45
2023-02-05T23:21:01.629Z,1.41
2023-02-05T23:24:03.715Z,1.40
2023-02-05T23:27:05.916Z,1.36
2023-02-05T23:30:08.854Z,1.34
2023-02-05T23:33:11.885Z,1.30
2023-02-05T23:36:14.003Z,1.27
2023-02-05T23:39:15.732Z,1.26
2023-02-05T23:42:17.491Z,1.25
2023-02-05T23:45:19.257Z,1.25
2023-02-05T23:48:22.251Z,1.23
2023-02-05T23:51:24.988Z,1.24
2023-02-05T23:54:26.713Z,1.22
2023-02-05T23:57:28.838Z,1.22
